CO53 weather

Yankee Field
Fort Collins, Colorado, United States

Public forecast

Using degrees Fahrenheit for public forecast. Weather courtesy of forecast.io.

Closest aviation weather report (METAR) to Yankee Field

Closest report is Northern Colorado Regional Airport, 11.0 nm (20.4 km) S. Retrieved 2020/02/22 02:56 UTC (10 minutes ago):

KFNL 220256Z AUTO VRB04KT 10SM CLR 04/M09 A3015 RMK AO2 SLP241 T00391089 50001

Closest aviation forecast (TAF) to Yankee Field

Closest forecast is Cheyenne Regional Jerry Olson Field, 32.3 nm (59.9 km) NNE. Retrieved 2020-02-22 00:22 UTC (3 hours ago):

TAF KCYS 212320Z 2200/2224 24009KT P6SM SKC FM220600 28020G30KT P6SM SKC FM221600 26015G25KT P6SM SKC